LNI weather

Lonely Air Station
Lonely, Alaska, United States

Public forecast

Using degrees Fahrenheit for public forecast. Weather courtesy of forecast.io.

METAR (pilot weather report)

Closest report is Alpine Airstrip, 57.0 nm (105.6 km) SE. Retrieved 2019/04/22 20:45 UTC (49 minutes ago):

PALP 222045Z 03012KT 5SM BR OVC004 M07/M09 A2981

TAF (pilot weather forecast)

Closest forecast is Nuiqsut Airport, 61.4 nm (113.6 km) SE. Retrieved 2019/04/22 18:40 UTC (3 hours ago):

TAF PAQT 221738Z 2218/2318 35010KT 1/2SM FZFG OVC004 FM222100 02018G28KT 1 1/2SM BLSN OVC004 FM230000 05020G30KT 3/4SM BLSN BKN004 OVC007 FM230600 05025G35KT 1/2SM BLSN FZFG OVC004